Flight Track Log - Related Links

Times and Time Zones

All times are in EDT time to prevent confusion due to time zone crossing. See the ERR709 flight status page for this flight to view local times or setup timezone preferences in your user account.

Time Position Orientation Groundspeed Altitude Reporting Facility
EDT Latitude Longitude Course Direction KTS MPH feet Rate Location/Type
Tue 02:03:04 AM 64.8500 -147.8167 217° Southwest 170 196 4,400  Level Anchorage Center
Tue 02:04:04 AM 64.8333 -147.9333 251° West 180 207 6,800 2,132 Climbing Anchorage Center
Tue 02:05:05 AM 64.8000 -148.0167 227° Southwest 190 219 8,700 2,132 Climbing Anchorage Center
Tue 02:06:05 AM 64.7500 -148.0500 196° South 180 207 11,100 2,100 Climbing Anchorage Center
Tue 02:07:05 AM 64.7000 -148.0833 196° South 200 230 12,900 2,000 Climbing Anchorage Center
Tue 02:08:00 AM 64.3854 -148.1397 217° Southwest  Level Estimated
Tue 02:08:05 AM 64.6500 -148.1167 196° South 190 219 15,100  Level Anchorage Center
Tue 02:09:05 AM 64.6000 -148.1500 196° South 190 219 16,700 1,700 Climbing Anchorage Center
Tue 02:10:05 AM 64.5333 -148.1667 186° South 200 230 18,500 1,550 Climbing Anchorage Center
Tue 02:11:05 AM 64.4833 -148.2000 196° South 200 230 19,800 1,250 Climbing Anchorage Center
Tue 02:12:05 AM 64.4333 -148.2333 196° South 200 230 21,000 595 Climbing Anchorage Center
Tue 02:13:06 AM 64.3667 -148.2667 192° South 240 276 21,000  Level Anchorage Center
Tue 02:14:06 AM 64.3000 -148.3000 192° South 250 288 21,000  Level Anchorage Center
Tue 02:15:06 AM 64.2333 -148.3500 198° South 260 299 21,000  Level Anchorage Center
Tue 02:16:06 AM 64.1667 -148.3833 192° South 260 299 21,000  Level Anchorage Center
Tue 02:17:06 AM 64.0833 -148.4333 195° South 260 299 21,000  Level Anchorage Center
Tue 02:18:06 AM 64.0167 -148.4667 192° South 260 299 21,000  Level Anchorage Center
Tue 02:19:07 AM 63.9500 -148.5000 192° South 260 299 21,000  Level Anchorage Center
Tue 02:20:07 AM 63.8833 -148.5500 198° South 260 299 21,000  Level Anchorage Center
Tue 02:21:07 AM 63.8000 -148.5833 190° South 260 299 21,000  Level Anchorage Center
Tue 02:22:07 AM 63.7333 -148.6333 198° South 260 299 21,000  Level Anchorage Center
Tue 02:23:07 AM 63.6667 -148.6667 193° South 270 311 21,000  Level Anchorage Center
Tue 02:24:07 AM 63.6000 -148.7167 198° South 270 311 21,000  Level Anchorage Center
Tue 02:25:07 AM 63.5167 -148.7500 190° South 270 311 21,000  Level Anchorage Center
Tue 02:26:07 AM 63.4500 -148.8000 199° South 270 311 21,000  Level Anchorage Center
Tue 02:27:07 AM 63.3833 -148.8333 193° South 270 311 21,000  Level Anchorage Center
Tue 02:28:07 AM 63.3000 -148.8833 195° South 260 299 21,000  Level Anchorage Center
Tue 02:29:08 AM 63.2333 -148.9167 193° South 270 311 21,000  Level Anchorage Center
Tue 02:30:08 AM 63.1667 -148.9500 193° South 270 311 21,000  Level Anchorage Center
Tue 02:31:08 AM 63.1000 -149.0000 199° South 280 322 21,000  Level Anchorage Center
Tue 02:32:08 AM 63.0333 -149.0333 193° South 260 299 21,000  Level Anchorage Center
Tue 02:33:08 AM 62.9333 -149.0833 193° South 270 311 21,000  Level Anchorage Center
Tue 02:34:08 AM 62.8667 -149.1167 193° South 270 311 21,000  Level Anchorage Center
Tue 02:35:08 AM 62.8000 -149.1667 199° South 270 311 21,000  Level Anchorage Center
Tue 02:36:08 AM 62.7167 -149.2000 190° South 270 311 21,000  Level Anchorage Center
Tue 02:37:09 AM 62.6500 -149.2500 199° South 270 311 21,000  Level Anchorage Center
Tue 02:38:09 AM 62.5667 -149.2833 190° South 270 311 21,000  Level Anchorage Center
Tue 02:39:09 AM 62.5000 -149.3333 199° South 260 299 21,000  Level Anchorage Center
Tue 02:40:09 AM 62.4333 -149.3667 193° South 270 311 21,000  Level Anchorage Center
Tue 02:41:09 AM 62.3500 -149.4000 191° South 270 311 21,000 -50 Level Anchorage Center
Tue 02:42:09 AM 62.2833 -149.4333 193° South 270 311 20,900  Descending Anchorage Center
Tue 02:43:09 AM 62.2000 -149.4667 191° South 270 311 21,000  Climbing Anchorage Center
Tue 02:44:09 AM 62.1333 -149.5000 193° South 270 311 20,900 -350 Descending Anchorage Center
Tue 02:45:09 AM 62.0667 -149.5500 199° South 270 311 20,300 -942 Descending Anchorage Center
Tue 02:46:10 AM 61.9833 -149.5833 191° South 270 311 19,000 -1,279 Descending Anchorage Center
Tue 02:48:00 AM 61.8682 -149.6160 193° South  Level FlightAware Approximate
Tue 02:55:00 AM 61.4420 -149.8457 193° South  Level FlightAware Approximate
Tue 02:56:00 AM 61.3811 -149.8780 196° South  Level FlightAware Approximate
Tue 02:57:00 AM 61.3207 -149.9142 196° South  Level FlightAware Approximate
Tue 02:58:00 AM 61.2591 -149.9397 191° South  Level FlightAware Approximate
Tue 02:59:00 AM 61.1977 -149.9678 194° South  Level FlightAware Approximate
Tue 03:00:00 AM 61.1667 -149.9833 194° South  Level FlightAware Approximate
Tue 03:01:00 AM 61.1741 -149.9982 194° South  Level Estimated
Tue 03:02:00 AM 61.1741 -149.9982 194° South  Level Estimated
Tue 03:03:00 AM 61.1741 -149.9982 194° South  Level Estimated
Tue 03:04:00 AM 61.1741 -149.9982 194° South  Level Estimated
Tue 03:05:00 AM 61.1741 -149.9982 194° South  Level Estimated
Tue 03:06:00 AM 61.1741 -149.9982 194° South  Level Estimated
Tue 03:07:00 AM 61.1741 -149.9982 194° South  Level Estimated
Tue 03:08:00 AM 61.1741 -149.9982 194° South  Level Estimated
Tue 03:09:00 AM 61.1741 -149.9982 194° South  Level Estimated
Tue 03:10:00 AM 61.1741 -149.9982 194° South  Level Estimated
Tue 03:11:00 AM 61.1741 -149.9982 194° South  Level Estimated
Tue 03:12:00 AM 61.1741 -149.9982 194° South  Level Estimated
Tue 03:13:00 AM 61.1741 -149.9982 194° South  Level Estimated
Tue 03:14:00 AM 61.1741 -149.9982 194° South  Level Estimated
Tue 03:15:00 AM 61.1741 -149.9982 194° South  Level Estimated

Login

Don't have an account? Register now (free) for customized features, flight alerts, and more!